sensor_id;sensor_type;location;lat;lon;timestamp;pressure;altitude;pressure_sealevel;temperature
68342;BMP280;55668;52.310;21.066;2022-09-20T00:08:27;100300.0;;;10.1
68342;BMP280;55668;52.310;21.066;2022-09-20T00:23:20;100310.0;;;10.0
68342;BMP280;55668;52.310;21.066;2022-09-20T00:39:08;100320.0;;;9.9
68342;BMP280;55668;52.310;21.066;2022-09-20T01:24:04;100320.0;;;9.8
68342;BMP280;55668;52.310;21.066;2022-09-20T01:39:36;100330.0;;;9.7
68342;BMP280;55668;52.310;21.066;2022-09-20T01:56:02;100330.0;;;9.6
68342;BMP280;55668;52.310;21.066;2022-09-20T02:13:22;100330.0;;;9.5
68342;BMP280;55668;52.310;21.066;2022-09-20T02:26:23;100340.0;;;9.6
68342;BMP280;55668;52.310;21.066;2022-09-20T03:14:10;100370.0;;;9.8
68342;BMP280;55668;52.310;21.066;2022-09-20T03:27:06;100370.0;;;9.9
68342;BMP280;55668;52.310;21.066;2022-09-20T04:14:02;100400.0;;;10.0
68342;BMP280;55668;52.310;21.066;2022-09-20T04:28:39;100400.0;;;10.1
68342;BMP280;55668;52.310;21.066;2022-09-20T05:18:47;100470.0;;;10.2
68342;BMP280;55668;52.310;21.066;2022-09-20T05:30:53;100480.0;;;10.3
68342;BMP280;55668;52.310;21.066;2022-09-20T06:00:29;100500.0;;;10.4
68342;BMP280;55668;52.310;21.066;2022-09-20T06:31:11;100530.0;;;10.6
68342;BMP280;55668;52.310;21.066;2022-09-20T06:48:51;100540.0;;;10.7
68342;BMP280;55668;52.310;21.066;2022-09-20T07:01:57;100550.0;;;10.9
68342;BMP280;55668;52.310;21.066;2022-09-20T07:17:44;100560.0;;;11.1
68342;BMP280;55668;52.310;21.066;2022-09-20T07:32:43;100580.0;;;11.2
68342;BMP280;55668;52.310;21.066;2022-09-20T08:15:50;100610.0;;;unknown
68342;BMP280;55668;52.310;21.066;2022-09-20T08:19:43;100610.0;;;11.8
68342;BMP280;55668;52.310;21.066;2022-09-20T08:34:19;100620.0;;;12.2
68342;BMP280;55668;52.310;21.066;2022-09-20T08:49:46;100630.0;;;12.3
68342;BMP280;55668;52.310;21.066;2022-09-20T09:37:08;100650.0;;;12.4
68342;BMP280;55668;52.310;21.066;2022-09-20T09:51:36;100650.0;;;12.5
68342;BMP280;55668;52.310;21.066;2022-09-20T10:06:22;100660.0;;;12.6
68342;BMP280;55668;52.310;21.066;2022-09-20T10:22:43;100670.0;;;12.7
68342;BMP280;55668;52.310;21.066;2022-09-20T10:37:54;100670.0;;;13.1
68342;BMP280;55668;52.310;21.066;2022-09-20T10:54:01;100660.0;;;13.7
68342;BMP280;55668;52.310;21.066;2022-09-20T11:07:58;100660.0;;;14.3
68342;BMP280;55668;52.310;21.066;2022-09-20T11:27:36;100660.0;;;14.6
68342;BMP280;55668;52.310;21.066;2022-09-20T12:11:25;100650.0;;;14.7
68342;BMP280;55668;52.310;21.066;2022-09-20T12:41:12;100640.0;;;14.9
68342;BMP280;55668;52.310;21.066;2022-09-20T12:55:11;100640.0;;;14.7
68342;BMP280;55668;52.310;21.066;2022-09-20T13:44:03;100680.0;;;14.3
68342;BMP280;55668;52.310;21.066;2022-09-20T13:57:58;100670.0;;;13.9
68342;BMP280;55668;52.310;21.066;2022-09-20T14:17:05;100660.0;;;13.6
68342;BMP280;55668;52.310;21.066;2022-09-20T14:45:37;100690.0;;;13.8
68342;BMP280;55668;52.310;21.066;2022-09-20T15:01:21;100720.0;;;13.5
68342;BMP280;55668;52.310;21.066;2022-09-20T15:16:29;100720.0;;;13.3
68342;BMP280;55668;52.310;21.066;2022-09-20T16:46:02;100750.0;;;12.5
68342;BMP280;55668;52.310;21.066;2022-09-20T17:02:24;100760.0;;;12.4
68342;BMP280;55668;52.310;21.066;2022-09-20T17:16:40;100770.0;;;12.3
68342;BMP280;55668;52.310;21.066;2022-09-20T17:31:49;100800.0;;;12.2
68342;BMP280;55668;52.310;21.066;2022-09-20T17:47:09;100810.0;;;11.9
68342;BMP280;55668;52.310;21.066;2022-09-20T18:04:58;100820.0;;;11.7
68342;BMP280;55668;52.310;21.066;2022-09-20T18:18:40;100840.0;;;11.5
68342;BMP280;55668;52.310;21.066;2022-09-20T18:35:43;100850.0;;;11.4
68342;BMP280;55668;52.310;21.066;2022-09-20T19:06:30;100870.0;;;11.2
68342;BMP280;55668;52.310;21.066;2022-09-20T20:20:39;100910.0;;;11.1
68342;BMP280;55668;52.310;21.066;2022-09-20T20:36:38;100920.0;;;11.0
68342;BMP280;55668;52.310;21.066;2022-09-20T20:51:35;100920.0;;;10.8
68342;BMP280;55668;52.310;21.066;2022-09-20T21:08:14;100930.0;;;10.7
68342;BMP280;55668;52.310;21.066;2022-09-20T21:22:10;100930.0;;;10.6
68342;BMP280;55668;52.310;21.066;2022-09-20T21:37:37;100940.0;;;10.5
68342;BMP280;55668;52.310;21.066;2022-09-20T21:54:15;100950.0;;;10.4
68342;BMP280;55668;52.310;21.066;2022-09-20T22:09:10;100960.0;;;10.3
68342;BMP280;55668;52.310;21.066;2022-09-20T22:25:03;100960.0;;;10.1
68342;BMP280;55668;52.310;21.066;2022-09-20T22:38:48;100960.0;;;10.0
68342;BMP280;55668;52.310;21.066;2022-09-20T22:54:49;100950.0;;;9.9
68342;BMP280;55668;52.310;21.066;2022-09-20T23:56:04;100970.0;;;10.0
